Time;durP1;ratioP1;P1;durP2;ratioP2;P2;SDS_P1;SDS_P2;PMS_P1;PMS_P2;Temp;Humidity;BMP_temperature;BMP_pressure;BME280_temperature;BME280_humidity;BME280_pressure;Samples;Min_cycle;Max_cycle;Signal;HPM_P1;HPM_P2
2022/04/09 00:02:01;;;;;;;4.80;2.53;;;;;;;13.68;46.03;94588.13;5104754;28;20031;-70
2022/04/09 00:04:26;;;;;;;3.30;2.25;;;;;;;13.62;46.08;94591.69;5105314;28;20499;-70
2022/04/09 00:06:52;;;;;;;3.63;2.30;;;;;;;13.54;46.25;94590.91;5104587;28;20062;-71
2022/04/09 00:09:18;;;;;;;4.38;2.25;;;;;;;13.45;46.95;94586.78;5105007;28;20316;-71
2022/04/09 00:11:44;;;;;;;4.50;2.47;;;;;;;13.38;46.64;94592.19;5104778;28;20451;-70
2022/04/09 00:14:09;;;;;;;4.03;2.35;;;;;;;13.32;46.96;94591.19;5104797;28;20031;-69
2022/04/09 00:16:34;;;;;;;3.42;2.38;;;;;;;13.28;46.91;94592.69;5105149;28;20023;-69
2022/04/09 00:19:00;;;;;;;5.00;2.53;;;;;;;13.31;46.83;94591.41;5104353;28;20088;-70
2022/04/09 00:21:28;;;;;;;3.13;2.40;;;;;;;13.23;47.15;94589.81;5108692;28;20027;-70
2022/04/09 00:23:53;;;;;;;5.13;2.97;;;;;;;13.25;47.11;94579.63;5108262;28;20016;-70
2022/04/09 00:26:18;;;;;;;5.22;2.67;;;;;;;13.21;47.15;94576.56;5109002;28;20513;-70
2022/04/09 00:28:44;;;;;;;6.50;2.70;;;;;;;13.19;47.33;94578.63;5108503;28;20024;-69
2022/04/09 00:31:09;;;;;;;4.82;2.13;;;;;;;13.19;47.25;94570.56;5108384;28;20472;-69
2022/04/09 00:33:35;;;;;;;3.88;2.50;;;;;;;13.23;46.95;94573.66;5108510;28;20032;-70
2022/04/09 00:36:00;;;;;;;3.78;2.13;;;;;;;13.13;47.23;94568.72;5108315;28;20093;-70
2022/04/09 00:38:27;;;;;;;4.43;2.30;;;;;;;12.98;47.78;94567.13;5108973;28;20098;-69
2022/04/09 00:40:53;;;;;;;5.25;2.30;;;;;;;12.94;47.57;94565.06;5108090;28;20429;-71
2022/04/09 00:43:19;;;;;;;3.50;2.22;;;;;;;12.87;48.07;94562.41;5108818;27;20016;-70
2022/04/09 00:45:48;;;;;;;3.53;2.45;;;;;;;12.76;48.32;94560.38;5107761;27;20033;-69
2022/04/09 00:48:13;;;;;;;3.83;2.30;;;;;;;12.70;49.18;94562.06;5108411;28;20112;-70
2022/04/09 00:50:39;;;;;;;4.05;2.40;;;;;;;12.64;48.60;94565.59;5108137;28;20486;-70
2022/04/09 00:53:04;;;;;;;4.28;2.42;;;;;;;12.56;49.27;94567.47;5108481;28;20451;-69
2022/04/09 00:58:14;;;;;;;5.68;2.70;;;;;;;12.44;49.70;94558.41;5092227;28;20512;-70
2022/04/09 01:00:41;;;;;;;2.97;2.58;;;;;;;12.42;49.89;94553.22;5108727;28;20016;-70
2022/04/09 01:03:07;;;;;;;4.18;2.70;;;;;;;12.40;49.77;94549.91;5107710;28;20483;-70
2022/04/09 01:05:32;;;;;;;6.03;2.60;;;;;;;12.44;49.76;94550.34;5106891;28;20024;-69
2022/04/09 01:07:58;;;;;;;4.72;2.30;;;;;;;12.46;49.57;94548.28;5089671;28;20028;-70
2022/04/09 01:10:23;;;;;;;3.97;2.97;;;;;;;12.51;49.17;94542.25;5107818;28;20471;-69
2022/04/09 01:12:49;;;;;;;3.28;2.63;;;;;;;12.54;49.43;94539.94;5108226;28;20383;-71
2022/04/09 01:15:14;;;;;;;4.70;2.35;;;;;;;12.54;49.33;94531.88;5107418;28;20020;-70
2022/04/09 01:17:39;;;;;;;4.50;2.92;;;;;;;12.54;49.54;94529.19;5108336;28;20425;-69
2022/04/09 01:20:21;;;;;;;4.63;2.90;;;;;;;12.55;49.57;94536.25;5106044;28;20023;-69
2022/04/09 01:22:47;;;;;;;2.85;2.35;;;;;;;12.54;49.75;94533.75;5108063;28;20026;-69
2022/04/09 01:25:13;;;;;;;3.85;2.45;;;;;;;12.60;49.71;94532.91;5107434;28;20027;-69
2022/04/09 01:27:38;;;;;;;4.38;2.40;;;;;;;12.60;48.95;94532.91;5107415;28;20016;-71
2022/04/09 01:30:04;;;;;;;4.13;2.47;;;;;;;12.64;48.93;94534.13;5106487;28;20035;-69
2022/04/09 01:32:29;;;;;;;3.58;2.45;;;;;;;12.65;49.02;94534.97;5105506;28;20046;-70
2022/04/09 01:34:55;;;;;;;3.78;2.60;;;;;;;12.67;48.76;94531.00;5108268;28;20027;-69
2022/04/09 01:37:20;;;;;;;4.40;2.70;;;;;;;12.69;48.49;94526.25;5106817;28;20406;-69
2022/04/09 01:39:46;;;;;;;3.22;2.40;;;;;;;12.70;48.45;94532.47;5107932;28;20425;-70
2022/04/09 01:42:11;;;;;;;4.40;3.00;;;;;;;12.69;48.41;94528.09;5107021;28;20024;-70
2022/04/09 01:44:37;;;;;;;4.70;2.65;;;;;;;12.70;48.42;94532.47;5107134;28;20058;-70
2022/04/09 01:47:04;;;;;;;4.32;3.25;;;;;;;12.69;48.17;94537.00;5105691;28;20564;-71
2022/04/09 01:49:29;;;;;;;5.85;2.97;;;;;;;12.70;47.95;94538.66;5105666;28;20028;-69
2022/04/09 01:51:54;;;;;;;4.82;2.60;;;;;;;12.74;47.56;94533.69;5107662;28;20093;-70
2022/04/09 01:54:20;;;;;;;3.85;2.25;;;;;;;12.69;47.93;94536.19;5106938;28;20022;-70
2022/04/09 01:56:45;;;;;;;4.25;2.40;;;;;;;12.69;47.86;94541.56;5107426;28;20028;-70
2022/04/09 01:59:11;;;;;;;3.63;2.40;;;;;;;12.68;47.57;94539.91;5106868;28;20035;-69
2022/04/09 02:01:36;;;;;;;4.43;2.60;;;;;;;12.59;47.89;94539.34;5107562;28;20431;-70
2022/04/09 02:04:02;;;;;;;3.92;2.70;;;;;;;12.56;48.17;94542.44;5106571;28;20081;-70
2022/04/09 02:06:28;;;;;;;5.60;2.50;;;;;;;12.52;48.05;94542.03;5106936;28;20032;-70
2022/04/09 02:08:54;;;;;;;5.28;2.72;;;;;;;12.45;48.33;94541.22;5107080;28;20024;-70
2022/04/09 02:11:19;;;;;;;4.18;2.90;;;;;;;12.41;48.60;94545.38;5107279;28;20031;-69
2022/04/09 02:13:44;;;;;;;3.80;2.55;;;;;;;12.32;49.35;94539.38;5105886;28;20023;-70
2022/04/09 02:16:10;;;;;;;5.43;2.70;;;;;;;12.22;49.48;94537.97;5106146;28;20034;-70
2022/04/09 02:18:35;;;;;;;6.38;2.92;;;;;;;12.19;49.64;94546.44;5106835;28;20401;-70
2022/04/09 02:21:01;;;;;;;4.53;2.33;;;;;;;12.21;49.44;94552.44;5106677;28;20019;-70
2022/04/09 02:23:26;;;;;;;4.15;2.30;;;;;;;12.21;49.36;94541.69;5106796;28;20057;-69
2022/04/09 02:25:52;;;;;;;5.55;4.00;;;;;;;12.19;49.29;94534.84;5106041;28;20035;-70
2022/04/09 02:28:17;;;;;;;3.92;2.95;;;;;;;12.16;49.43;94538.81;5106572;28;20529;-69
2022/04/09 02:30:43;;;;;;;4.03;2.55;;;;;;;12.08;50.23;94536.31;5106198;28;20555;-70
2022/04/09 02:33:08;;;;;;;4.68;2.55;;;;;;;12.04;50.39;94529.69;5105953;28;20458;-70
2022/04/09 02:35:33;;;;;;;3.17;2.40;;;;;;;12.03;50.25;94542.28;5106539;28;20031;-70
2022/04/09 02:37:59;;;;;;;5.45;2.50;;;;;;;12.05;50.39;94542.09;5105589;28;20040;-70
2022/04/09 02:40:24;;;;;;;3.70;2.47;;;;;;;11.98;50.96;94534.84;5106703;28;20474;-70
2022/04/09 02:42:51;;;;;;;3.75;2.33;;;;;;;11.99;50.57;94531.13;5105212;28;20120;-70
2022/04/09 02:45:16;;;;;;;4.10;2.47;;;;;;;11.96;50.86;94538.81;5106301;28;20104;-70
2022/04/09 02:47:41;;;;;;;4.55;2.92;;;;;;;11.98;51.12;94529.50;5106040;28;20508;-70
2022/04/09 02:50:07;;;;;;;3.00;2.30;;;;;;;11.96;50.48;94517.31;5105740;28;20035;-70
2022/04/09 02:52:37;;;;;;;6.82;2.53;;;;;;;11.91;50.77;94515.25;5105291;28;20035;-70
2022/04/09 02:55:03;;;;;;;3.20;2.30;;;;;;;11.85;50.78;94511.50;5104126;28;20055;-69
2022/04/09 02:57:29;;;;;;;2.97;2.60;;;;;;;11.82;50.91;94508.41;5106237;28;20027;-69
2022/04/09 02:59:54;;;;;;;5.47;2.95;;;;;;;11.85;50.37;94521.41;5105094;28;20024;-70
2022/04/09 03:02:20;;;;;;;3.60;2.65;;;;;;;11.78;50.74;94524.13;5106110;28;20027;-70
2022/04/09 03:04:45;;;;;;;4.63;2.80;;;;;;;11.78;50.62;94520.63;5105171;28;20077;-69
2022/04/09 03:07:11;;;;;;;4.25;2.50;;;;;;;11.74;51.08;94518.34;5105824;28;20081;-70
2022/04/09 03:09:37;;;;;;;4.05;2.53;;;;;;;11.74;51.05;94521.03;5106347;28;20077;-69
2022/04/09 03:12:04;;;;;;;6.50;2.75;;;;;;;11.69;51.38;94523.50;5105262;28;20459;-69
2022/04/09 03:14:29;;;;;;;5.00;2.90;;;;;;;11.70;51.35;94518.97;5106289;28;20043;-70
2022/04/09 03:16:55;;;;;;;4.88;2.97;;;;;;;11.64;51.30;94520.59;5104681;28;20019;-70
2022/04/09 03:19:20;;;;;;;6.40;2.67;;;;;;;11.61;51.18;94521.00;5104534;28;20026;-70
2022/04/09 03:21:46;;;;;;;4.38;3.10;;;;;;;11.47;51.51;94510.28;5104956;28;20031;-70
2022/04/09 03:24:11;;;;;;;7.88;3.47;;;;;;;11.42;51.93;94512.75;5105800;28;20019;-70
2022/04/09 03:26:36;;;;;;;6.15;2.88;;;;;;;11.34;52.48;94510.25;5105513;28;20031;-70
2022/04/09 03:29:03;;;;;;;4.60;3.20;;;;;;;11.29;52.51;94504.66;5104896;28;20532;-70
2022/04/09 03:31:29;;;;;;;4.45;3.13;;;;;;;11.16;53.26;94509.00;5105663;28;20043;-70
2022/04/09 03:33:54;;;;;;;5.38;3.17;;;;;;;11.21;52.78;94511.06;5086575;28;20024;-69
2022/04/09 03:36:19;;;;;;;8.25;3.20;;;;;;;11.28;52.55;94511.06;5105559;28;20027;-70
2022/04/09 03:38:45;;;;;;;5.65;3.10;;;;;;;11.26;52.67;94519.34;5104745;28;20023;-70
2022/04/09 03:41:10;;;;;;;8.00;3.72;;;;;;;11.12;52.75;94515.81;5103853;28;20031;-69
2022/04/09 03:43:36;;;;;;;7.05;3.47;;;;;;;11.00;53.36;94515.56;5105366;28;20027;-70
2022/04/09 03:46:01;;;;;;;6.45;3.90;;;;;;;10.90;53.41;94509.75;5104803;28;20036;-72
2022/04/09 03:48:27;;;;;;;8.05;6.47;;;;;;;10.77;53.62;94511.34;5105408;28;20024;-70
2022/04/09 03:50:53;;;;;;;4.30;3.55;;;;;;;10.73;54.11;94516.31;5104974;28;20051;-70
2022/04/09 03:53:21;;;;;;;4.55;3.42;;;;;;;10.73;53.92;94510.13;5105955;28;20107;-70
2022/04/09 03:55:47;;;;;;;4.90;3.42;;;;;;;10.72;53.69;94509.28;5106944;28;20102;-69
2022/04/09 03:58:16;;;;;;;6.18;3.50;;;;;;;10.66;54.30;94506.56;5108315;28;20023;-69
2022/04/09 04:00:42;;;;;;;6.53;3.50;;;;;;;10.58;54.61;94512.94;5109061;28;20028;-69
2022/04/09 04:03:09;;;;;;;5.88;3.63;;;;;;;10.60;53.84;94509.03;5109219;28;20100;-70
2022/04/09 04:05:36;;;;;;;4.70;3.20;;;;;;;10.55;54.04;94507.97;5109295;28;20055;-70
2022/04/09 04:08:03;;;;;;;5.50;2.92;;;;;;;10.52;54.40;94498.47;5108780;28;20511;-70
2022/04/09 04:10:29;;;;;;;4.85;3.15;;;;;;;10.56;54.17;94498.91;5109755;28;20047;-70
2022/04/09 04:12:54;;;;;;;5.03;3.42;;;;;;;10.56;53.71;94506.97;5108599;28;20482;-70
2022/04/09 04:15:20;;;;;;;3.83;3.40;;;;;;;10.56;54.07;94504.28;5109374;28;20020;-69
2022/04/09 04:17:45;;;;;;;4.00;3.20;;;;;;;10.47;54.67;94493.72;5108460;28;20039;-70
2022/04/09 04:20:11;;;;;;;6.50;3.72;;;;;;;10.39;54.35;94501.91;5109034;28;20031;-70
2022/04/09 04:22:37;;;;;;;6.13;4.40;;;;;;;10.33;54.76;94505.38;5109072;28;20081;-71
2022/04/09 04:25:05;;;;;;;9.27;3.38;;;;;;;10.35;54.55;94509.50;5108717;28;20043;-70
2022/04/09 04:27:31;;;;;;;7.20;4.53;;;;;;;10.36;54.71;94497.78;5109132;28;20509;-72
2022/04/09 04:30:00;;;;;;;4.63;3.65;;;;;;;10.44;54.46;94502.13;5108927;28;20016;-70
2022/04/09 04:32:26;;;;;;;7.88;3.97;;;;;;;10.56;54.25;94505.09;5108835;28;20104;-70
2022/04/09 04:34:52;;;;;;;7.35;3.47;;;;;;;10.65;53.82;94508.44;5108106;28;20082;-70
2022/04/09 04:37:17;;;;;;;5.57;3.00;;;;;;;10.80;53.08;94505.59;5108858;28;20020;-70
2022/04/09 04:39:43;;;;;;;5.28;3.45;;;;;;;10.79;53.98;94509.31;5108665;28;20046;-70
2022/04/09 04:42:08;;;;;;;7.78;3.95;;;;;;;10.82;54.25;94495.50;5108483;28;20028;-70
2022/04/09 04:44:34;;;;;;;7.15;4.78;;;;;;;10.87;53.85;94508.28;5108697;28;20035;-70
2022/04/09 04:46:59;;;;;;;8.88;3.95;;;;;;;10.84;53.81;94516.75;5108285;28;20539;-70
2022/04/09 04:49:24;;;;;;;9.25;3.78;;;;;;;11.03;53.48;94506.28;5108668;28;20490;-70
2022/04/09 04:51:50;;;;;;;5.78;3.28;;;;;;;11.23;52.75;94499.09;5107984;28;20034;-71
2022/04/09 04:54:15;;;;;;;9.80;4.30;;;;;;;11.41;52.22;94500.38;5108708;28;20020;-69
2022/04/09 04:56:42;;;;;;;12.27;4.07;;;;;;;11.61;52.59;94489.63;5107855;28;20471;-70
2022/04/09 04:59:07;;;;;;;11.27;4.07;;;;;;;11.81;51.87;94486.09;5108474;28;20103;-71
2022/04/09 05:01:34;;;;;;;9.93;3.80;;;;;;;12.01;51.37;94487.91;5107958;28;20100;-70
2022/04/09 05:04:00;;;;;;;7.38;4.45;;;;;;;12.17;50.69;94484.00;5108078;28;20024;-70
2022/04/09 05:06:26;;;;;;;11.02;5.13;;;;;;;12.34;49.94;94480.84;5107593;28;20396;-70
2022/04/09 05:08:51;;;;;;;5.88;3.80;;;;;;;12.54;50.80;94479.97;5107690;28;20027;-70
2022/04/09 05:11:16;;;;;;;9.57;4.25;;;;;;;12.73;50.03;94473.66;5108221;28;20032;-70
2022/04/09 05:13:42;;;;;;;6.47;4.38;;;;;;;12.71;49.67;94483.00;5107687;28;20027;-70
2022/04/09 05:16:07;;;;;;;10.13;4.78;;;;;;;12.88;50.51;94483.31;5108358;28;20024;-69
2022/04/09 05:18:34;;;;;;;6.13;3.60;;;;;;;13.02;50.36;94481.41;5107373;28;20015;-70
2022/04/09 05:20:59;;;;;;;10.63;4.20;;;;;;;13.26;49.04;94486.22;5107911;28;20015;-70
2022/04/09 05:23:25;;;;;;;11.15;5.03;;;;;;;13.36;48.90;94489.28;5107729;28;20054;-70
2022/04/09 05:25:50;;;;;;;14.15;5.28;;;;;;;13.48;48.77;94492.91;5107510;28;20057;-70
2022/04/09 05:28:16;;;;;;;10.93;5.50;;;;;;;13.68;48.19;94496.53;5108062;28;20035;-70
2022/04/09 05:30:44;;;;;;;10.68;4.13;;;;;;;13.81;47.62;94493.72;5107035;28;20035;-69
2022/04/09 05:33:09;;;;;;;10.25;4.47;;;;;;;14.11;47.51;94489.50;5107964;28;20051;-71
2022/04/09 05:35:35;;;;;;;8.90;3.95;;;;;;;14.40;46.07;94481.72;5107030;28;20016;-70
2022/04/09 05:38:00;;;;;;;7.10;3.95;;;;;;;14.55;46.25;94475.97;5106230;28;20031;-69
2022/04/09 05:40:26;;;;;;;10.48;4.68;;;;;;;14.69;45.57;94471.22;5107140;28;20032;-69
2022/04/09 05:42:51;;;;;;;9.77;5.07;;;;;;;14.83;45.20;94471.09;5107596;28;20512;-70
2022/04/09 05:45:17;;;;;;;8.45;7.70;;;;;;;14.79;45.38;94480.66;5107760;28;20501;-70
2022/04/09 05:47:44;;;;;;;7.25;5.47;;;;;;;14.76;45.51;94481.13;5106881;28;20025;-70
2022/04/09 05:50:10;;;;;;;10.07;6.63;;;;;;;14.76;45.60;94478.41;5108009;28;20027;-71
2022/04/09 05:52:35;;;;;;;11.00;9.88;;;;;;;14.84;45.81;94475.44;5106394;28;20051;-71
2022/04/09 05:55:04;;;;;;;7.97;6.50;;;;;;;14.99;45.42;94487.72;5107745;28;20386;-70
2022/04/09 05:57:30;;;;;;;10.82;7.00;;;;;;;15.07;45.69;94479.31;5106884;28;20031;-70
2022/04/09 05:59:56;;;;;;;11.07;8.93;;;;;;;15.22;45.21;94478.88;5107173;28;20027;-70
2022/04/09 06:02:21;;;;;;;9.13;8.23;;;;;;;15.28;44.93;94482.53;5107682;28;20440;-70
2022/04/09 06:04:46;;;;;;;9.45;8.50;;;;;;;15.31;44.97;94488.28;5106549;28;20023;-70
2022/04/09 06:07:13;;;;;;;10.23;8.93;;;;;;;15.44;44.49;94486.47;5107433;28;20024;-70
2022/04/09 06:09:42;;;;;;;8.45;7.05;;;;;;;15.61;44.27;94486.63;5106350;28;20217;-71
2022/04/09 06:12:11;;;;;;;8.98;6.78;;;;;;;15.67;44.38;94482.97;5107504;28;20035;-70
2022/04/09 06:14:36;;;;;;;10.30;6.90;;;;;;;15.77;44.60;94482.41;5106291;28;20071;-70
2022/04/09 06:17:02;;;;;;;6.18;5.35;;;;;;;15.88;43.96;94474.56;5106531;27;20448;-70
2022/04/09 06:19:29;;;;;;;10.57;9.30;;;;;;;15.88;43.89;94472.66;5106531;28;20055;-72
2022/04/09 06:21:55;;;;;;;9.63;6.22;;;;;;;15.94;43.75;94458.19;5106195;28;20482;-73
2022/04/09 06:24:20;;;;;;;7.03;6.32;;;;;;;16.00;43.48;94461.06;5107302;28;20030;-70
2022/04/09 06:26:46;;;;;;;5.45;3.95;;;;;;;16.06;43.22;94452.84;5105779;28;20028;-69
2022/04/09 06:29:11;;;;;;;5.95;3.80;;;;;;;16.15;42.91;94449.78;5107351;28;20027;-70
2022/04/09 06:31:37;;;;;;;8.63;4.22;;;;;;;16.23;43.11;94445.88;5105575;28;20035;-70
2022/04/09 06:34:02;;;;;;;10.07;3.50;;;;;;;16.27;42.63;94449.75;5106821;28;20097;-71
2022/04/09 06:36:27;;;;;;;8.75;3.90;;;;;;;16.31;43.03;94450.94;5106071;28;20035;-70
2022/04/09 06:38:53;;;;;;;5.28;4.78;;;;;;;16.42;42.50;94452.81;5106332;28;20020;-70
2022/04/09 06:41:19;;;;;;;5.15;3.33;;;;;;;16.47;42.34;94449.38;5106560;28;20100;-70
2022/04/09 06:43:47;;;;;;;6.75;3.40;;;;;;;16.52;42.52;94446.75;5105780;28;20027;-71
2022/04/09 06:46:13;;;;;;;5.65;3.60;;;;;;;16.50;41.98;94453.47;5106715;28;20065;-69
2022/04/09 06:48:38;;;;;;;4.88;3.72;;;;;;;16.53;42.39;94453.00;5105401;28;20019;-71
2022/04/09 06:51:04;;;;;;;18.08;16.83;;;;;;;16.57;42.22;94451.47;5105147;28;20035;-70
2022/04/09 06:53:29;;;;;;;6.53;3.28;;;;;;;16.68;42.10;94453.31;5105362;28;20032;-70
2022/04/09 06:55:55;;;;;;;4.40;3.15;;;;;;;16.82;42.19;94466.56;5104806;28;20031;-71
2022/04/09 06:58:20;;;;;;;5.45;4.90;;;;;;;17.04;41.50;94464.03;5105990;28;20536;-69
2022/04/09 07:00:46;;;;;;;8.15;7.38;;;;;;;17.25;41.27;94461.72;5105599;28;20020;-70
2022/04/09 07:03:12;;;;;;;7.47;6.93;;;;;;;17.47;40.63;94471.03;5106285;28;20441;-70
2022/04/09 07:05:38;;;;;;;6.55;5.90;;;;;;;17.51;40.17;94466.78;5104984;28;20042;-70
2022/04/09 07:08:06;;;;;;;8.75;8.05;;;;;;;17.63;39.93;94462.13;5106201;28;20106;-70
2022/04/09 07:10:32;;;;;;;8.05;5.28;;;;;;;17.52;39.72;94465.72;5105386;28;20023;-70
2022/04/09 07:12:57;;;;;;;9.13;3.90;;;;;;;17.51;39.87;94466.78;5105898;28;20047;-71
2022/04/09 07:15:23;;;;;;;8.02;3.45;;;;;;;17.55;39.84;94459.81;5105522;28;20042;-70
2022/04/09 07:17:48;;;;;;;6.50;3.03;;;;;;;17.61;39.42;94461.53;5105381;28;20045;-70
2022/04/09 07:20:14;;;;;;;5.03;3.55;;;;;;;17.72;40.19;94461.69;5105900;28;20714;-70
2022/04/09 07:22:40;;;;;;;6.72;3.25;;;;;;;17.74;39.83;94464.97;5105026;28;20023;-71
2022/04/09 07:25:06;;;;;;;9.18;3.88;;;;;;;17.73;39.11;94461.47;5106215;28;20033;-70
2022/04/09 07:27:39;;;;;;;6.47;4.07;;;;;;;17.85;39.90;94461.38;5104775;28;20027;-72
2022/04/09 07:30:06;;;;;;;7.47;3.88;;;;;;;17.88;39.36;94465.47;5105768;28;20023;-70
2022/04/09 07:32:31;;;;;;;9.60;4.35;;;;;;;17.85;38.24;94455.94;5104930;28;20047;-70
2022/04/09 07:34:57;;;;;;;7.93;5.40;;;;;;;17.86;38.87;94456.78;5105444;28;20024;-70
2022/04/09 07:37:22;;;;;;;9.27;5.57;;;;;;;17.83;38.14;94460.00;5105185;28;20030;-71
2022/04/09 07:39:48;;;;;;;5.35;3.90;;;;;;;17.72;37.14;94461.69;5104748;28;20042;-70
2022/04/09 07:42:13;;;;;;;5.35;3.75;;;;;;;17.83;36.97;94460.78;5105974;28;20026;-72
2022/04/09 07:44:39;;;;;;;7.72;6.88;;;;;;;18.00;36.16;94468.94;5104957;28;20031;-71
2022/04/09 07:47:04;;;;;;;5.28;4.00;;;;;;;18.25;35.51;94454.13;5105472;28;20054;-70
2022/04/09 07:49:30;;;;;;;5.82;3.75;;;;;;;18.20;35.68;94455.97;5104607;28;20053;-70
2022/04/09 07:51:55;;;;;;;7.38;6.55;;;;;;;18.31;35.45;94451.50;5105180;28;20034;-70
2022/04/09 07:54:20;;;;;;;5.13;3.40;;;;;;;18.44;35.40;94455.72;5104758;28;20028;-70
2022/04/09 07:56:46;;;;;;;14.73;13.30;;;;;;;18.65;34.92;94467.69;5103484;28;20012;-70
2022/04/09 07:59:11;;;;;;;3.75;3.42;;;;;;;18.72;34.61;94457.44;5105497;28;20024;-71
2022/04/09 08:01:37;;;;;;;5.75;3.85;;;;;;;18.81;35.04;94449.69;5104935;28;20016;-69
2022/04/09 08:04:03;;;;;;;6.10;4.90;;;;;;;18.95;35.01;94454.72;5105360;28;20043;-71
2022/04/09 08:06:28;;;;;;;7.10;4.35;;;;;;;19.05;34.89;94449.41;5104380;28;20072;-70
2022/04/09 08:08:54;;;;;;;9.18;4.60;;;;;;;19.29;35.25;94449.16;5105063;28;20039;-71
2022/04/09 08:11:19;;;;;;;8.98;6.60;;;;;;;19.58;33.72;94454.31;5104597;28;20081;-69
2022/04/09 08:13:45;;;;;;;8.65;7.85;;;;;;;19.52;33.72;94450.72;5105152;28;20068;-70
2022/04/09 08:16:10;;;;;;;9.77;8.65;;;;;;;19.59;33.07;94458.66;5104803;28;20023;-70
2022/04/09 08:18:38;;;;;;;9.38;8.60;;;;;;;19.58;33.57;94459.75;5105119;28;20081;-70
2022/04/09 08:21:04;;;;;;;7.47;6.97;;;;;;;19.63;33.46;94456.25;5105152;28;20075;-71
2022/04/09 08:23:29;;;;;;;11.20;10.30;;;;;;;19.45;33.56;94452.00;5104504;28;20115;-70
2022/04/09 08:25:56;;;;;;;8.43;7.68;;;;;;;19.57;33.74;94452.66;5104993;28;20031;-71
2022/04/09 08:28:21;;;;;;;11.27;10.18;;;;;;;19.67;34.40;94446.47;5104438;28;20051;-70
2022/04/09 08:30:47;;;;;;;8.02;7.38;;;;;;;19.71;33.31;94454.97;5105118;28;20497;-70
2022/04/09 08:33:15;;;;;;;7.90;7.15;;;;;;;19.75;33.17;94440.56;5103889;28;20514;-70
2022/04/09 08:35:43;;;;;;;9.07;7.70;;;;;;;19.80;33.35;94437.06;5104716;28;20031;-71
2022/04/09 08:38:08;;;;;;;7.03;6.22;;;;;;;19.72;33.03;94434.81;5104796;28;20028;-70
2022/04/09 08:40:36;;;;;;;8.18;6.68;;;;;;;19.75;33.61;94429.69;5103381;28;20427;-70
2022/04/09 08:43:01;;;;;;;11.27;10.27;;;;;;;19.80;33.45;94425.38;5107561;28;20081;-70
2022/04/09 08:45:26;;;;;;;9.85;8.95;;;;;;;19.81;34.37;94429.75;5107888;28;20031;-70
2022/04/09 08:47:52;;;;;;;9.07;8.35;;;;;;;19.90;33.80;94414.56;5107473;28;20042;-70
2022/04/09 08:50:17;;;;;;;8.50;7.75;;;;;;;20.04;33.51;94412.22;5089552;28;20020;-69
2022/04/09 08:52:44;;;;;;;7.80;7.18;;;;;;;20.42;33.02;94414.09;5090076;28;20482;-69
2022/04/09 08:55:12;;;;;;;12.55;11.57;;;;;;;20.43;32.66;94424.72;5108213;28;20049;-70
2022/04/09 08:57:38;;;;;;;11.02;10.07;;;;;;;20.27;32.96;94418.38;5108414;28;20020;-70
2022/04/09 09:00:13;;;;;;;24.58;19.02;;;;;;;20.33;33.68;94411.88;5108700;28;20220;-70
2022/04/09 09:02:49;;;;;;;12.70;11.68;;;;;;;20.41;32.10;94405.09;5106389;28;20023;-69
2022/04/09 09:05:37;;;;;;;15.32;14.45;;;;;;;20.58;31.83;94409.53;5108279;28;20036;-71
2022/04/09 09:08:03;;;;;;;14.25;13.05;;;;;;;20.67;33.25;94409.84;5107616;28;20441;-70
2022/04/09 09:10:28;;;;;;;40.22;38.30;;;;;;;20.79;32.12;94396.00;5108043;28;20494;-71
2022/04/09 09:12:58;;;;;;;20.65;19.50;;;;;;;20.89;30.77;94409.66;5108277;28;20489;-70
2022/04/09 09:15:24;;;;;;;21.00;19.75;;;;;;;20.82;31.46;94406.34;5107326;28;20111;-69
2022/04/09 09:17:49;;;;;;;21.58;20.30;;;;;;;20.93;31.48;94401.78;5108433;28;20032;-70
2022/04/09 09:20:15;;;;;;;26.73;25.23;;;;;;;20.93;31.20;94393.59;5105478;28;20042;-70
2022/04/09 09:22:42;;;;;;;25.20;23.80;;;;;;;20.86;32.30;94393.84;5108167;28;20023;-71
2022/04/09 09:25:09;;;;;;;25.58;24.23;;;;;;;20.85;31.29;94398.47;5107443;28;20034;-71
2022/04/09 09:27:35;;;;;;;29.40;27.98;;;;;;;20.70;32.25;94390.25;5107697;27;20104;-70
2022/04/09 09:30:01;;;;;;;25.67;24.23;;;;;;;20.59;32.69;94392.94;5108172;28;20023;-70
2022/04/09 09:32:27;;;;;;;26.35;25.05;;;;;;;20.64;32.79;94389.41;5107108;28;20066;-70
2022/04/09 09:34:54;;;;;;;30.10;28.55;;;;;;;20.70;32.19;94388.31;5108303;28;20049;-71
2022/04/09 09:37:26;;;;;;;30.55;28.95;;;;;;;20.63;32.05;94385.84;5107058;28;20158;-70
2022/04/09 09:39:52;;;;;;;34.60;32.70;;;;;;;20.60;31.76;94389.09;5108016;28;20030;-70
2022/04/09 09:42:18;;;;;;;36.03;34.05;;;;;;;20.55;31.93;94394.56;5105857;28;20019;-70
2022/04/09 09:44:44;;;;;;;32.80;30.88;;;;;;;20.28;31.82;94391.97;5107490;28;20107;-70
2022/04/09 09:47:09;;;;;;;26.95;25.55;;;;;;;20.32;31.25;94388.44;5106360;28;20089;-70
2022/04/09 09:49:59;;;;;;;27.50;26.20;;;;;;;20.39;30.86;94396.38;5106991;28;20024;-71
2022/04/09 09:52:31;;;;;;;24.30;22.92;;;;;;;20.43;31.41;94393.94;5106724;28;20531;-70
2022/04/09 09:54:57;;;;;;;26.30;25.02;;;;;;;20.52;31.36;94384.19;5107053;28;20168;-71
2022/04/09 09:57:23;;;;;;;30.05;28.48;;;;;;;20.66;31.03;94376.34;5106055;28;20557;-70
2022/04/09 09:59:49;;;;;;;34.55;32.83;;;;;;;20.78;31.19;94367.91;5107176;28;20505;-70
2022/04/09 10:02:15;;;;;;;37.08;35.00;;;;;;;20.85;30.45;94367.66;5107007;28;20064;-69
2022/04/09 10:04:40;;;;;;;42.28;40.13;;;;;;;20.99;29.41;94357.91;5106152;28;20028;-69
2022/04/09 10:07:06;;;;;;;42.45;40.30;;;;;;;21.06;29.69;94359.56;5105398;28;20081;-70
2022/04/09 10:09:31;;;;;;;45.85;43.30;;;;;;;21.18;29.78;94349.25;5106136;28;20042;-70
2022/04/09 10:11:56;;;;;;;45.22;42.85;;;;;;;21.22;29.32;94363.13;5106388;28;20080;-70
2022/04/09 10:14:23;;;;;;;47.55;45.22;;;;;;;21.28;29.10;94353.06;5106160;28;20024;-70
2022/04/09 10:16:48;;;;;;;55.95;53.15;;;;;;;21.33;29.10;94345.69;5106568;28;20016;-70
2022/04/09 10:19:14;;;;;;;54.33;51.33;;;;;;;21.31;29.89;94350.59;5105762;28;20459;-70
2022/04/09 10:21:40;;;;;;;52.38;49.72;;;;;;;21.51;29.47;94346.25;5105566;28;20137;-70
2022/04/09 10:24:13;;;;;;;58.17;55.30;;;;;;;21.35;29.16;94338.06;5105423;28;20016;-70
2022/04/09 10:26:38;;;;;;;59.65;56.65;;;;;;;21.31;29.06;94331.50;5105596;28;20486;-71
2022/04/09 10:29:08;;;;;;;61.00;57.80;;;;;;;21.32;28.27;94332.34;5104525;28;20043;-70
2022/04/09 10:31:36;;;;;;;74.55;70.75;;;;;;;21.27;27.36;94332.31;5105989;28;20047;-70
2022/04/09 10:34:03;;;;;;;73.38;69.75;;;;;;;21.34;27.09;94332.88;5106439;27;20015;-71
2022/04/09 10:36:41;;;;;;;67.63;64.25;;;;;;;21.36;26.67;94328.78;5106619;28;20102;-70
2022/04/09 10:39:45;;;;;;;71.57;67.68;;;;;;;21.40;25.06;94304.53;5106664;28;20483;-69
2022/04/09 10:42:31;;;;;;;63.38;60.00;;;;;;;21.36;25.79;94315.16;5105931;28;20038;-69
2022/04/09 10:44:56;;;;;;;62.63;59.45;;;;;;;21.38;25.82;94300.44;5105226;28;20522;-71
2022/04/09 10:47:22;;;;;;;66.88;63.53;;;;;;;21.47;25.92;94306.97;5106250;28;20034;-70
2022/04/09 10:49:59;;;;;;;74.70;70.45;;;;;;;21.43;25.16;94301.25;5106095;28;20036;-70
2022/04/09 10:52:27;;;;;;;67.80;64.28;;;;;;;21.43;25.17;94305.88;5106766;28;20379;-70
2022/04/09 10:55:05;;;;;;;78.18;74.18;;;;;;;21.48;24.97;94295.78;5105429;28;20119;-70
2022/04/09 10:57:43;;;;;;;73.78;70.03;;;;;;;21.58;24.93;94284.06;5106445;28;20027;-71
2022/04/09 11:00:22;;;;;;;73.63;69.38;;;;;;;21.68;24.59;94293.31;5105825;28;20015;-70
2022/04/09 11:03:12;;;;;;;77.85;73.38;;;;;;;21.70;24.98;94280.22;5105733;28;20027;-70
2022/04/09 11:05:40;;;;;;;76.22;72.25;;;;;;;21.67;25.10;94273.38;5106124;28;20032;-70
2022/04/09 11:08:14;;;;;;;94.05;88.68;;;;;;;21.78;24.55;94279.66;5103944;28;20043;-70
2022/04/09 11:10:40;;;;;;;79.50;75.43;;;;;;;21.80;24.45;94274.75;5106105;28;20115;-70
2022/04/09 11:13:10;;;;;;;90.28;85.47;;;;;;;21.89;25.15;94282.38;5105604;28;20102;-70
2022/04/09 11:15:36;;;;;;;86.88;82.07;;;;;;;21.91;25.33;94286.44;5105670;28;20555;-71
2022/04/09 11:18:02;;;;;;;91.30;86.57;;;;;;;22.02;24.92;94281.78;5105058;28;20024;-72
2022/04/09 11:20:34;;;;;;;92.25;87.55;;;;;;;22.08;24.43;94277.94;5105505;28;20019;-70
2022/04/09 11:23:09;;;;;;;92.07;87.38;;;;;;;22.06;25.19;94277.41;5106390;28;20038;-70
2022/04/09 11:25:35;;;;;;;183.02;172.35;;;;;;;22.19;24.95;94269.72;5105119;28;20528;-71
2022/04/09 11:28:17;;;;;;;96.30;91.07;;;;;;;22.22;24.82;94285.53;5106093;28;20020;-71
2022/04/09 11:31:00;;;;;;;104.28;98.78;;;;;;;22.26;25.56;94286.63;5105568;28;20106;-70